This is the latest recevied weather packets stored in our database for station/object WP3OF-5. If no packets are shown the sender has not sent any weather packets the latest 10 day(s).
| Time | Temp. | Humidity | Pressure | Rain* | Wind** | Luminosity | Snow |
|---|---|---|---|---|---|---|---|
| 1777832591 | 28.89° C | 74% | 1016.1 hPa | 0 mm | - | - | - |
| 1777831985 | 30° C | 72% | 1015.9 hPa | 0 mm | - | - | - |
| 1777831681 | 30° C | 71% | 1016 hPa | 0 mm | - | - | - |
| 1777831380 | 30° C | 72% | 1016.3 hPa | 0 mm | - | - | - |
| 1777829874 | 30° C | 71% | 1016.6 hPa | 0 mm | - | - | - |
| 1777829570 | 30.56° C | 69% | 1016.6 hPa | 0 mm | - | - | - |
| 1777828358 | 31.11° C | 68% | 1016.8 hPa | 0 mm | - | - | - |
| 1777826540 | 30° C | 72% | 1017.4 hPa | 0 mm | - | - | - |
| 1777826235 | 29.44° C | 73% | 1017.2 hPa | 0 mm | - | - | - |
| 1777825630 | 30° C | 69% | 1017.6 hPa | 0 mm | - | - | - |
| 1777825328 | 30° C | 70% | 1017.3 hPa | 0 mm | - | - | - |
| 1777824720 | 29.44° C | 70% | 1017.3 hPa | 0 mm | - | - | - |
| 1777824418 | 30° C | 67% | 1017.5 hPa | 0 mm | - | - | - |
| 1777824113 | 30.56° C | 68% | 1017.7 hPa | 0 mm | - | - | - |
| 1777823508 | 31.11° C | 64% | 1017.6 hPa | 0 mm | - | - | - |
| 1777822600 | 31.11° C | 61% | 1017.8 hPa | 0 mm | - | - | - |
| 1777821390 | 30.56° C | 57% | 1017.8 hPa | 0 mm | - | - | - |
| 1777820177 | 30.56° C | 60% | 1018.2 hPa | 0 mm | - | - | - |
| 1777818662 | 30.56° C | 61% | 1018.5 hPa | 0 mm | - | - | - |
| 1777817450 | 29.44° C | 62% | 1018.7 hPa | 0 mm | - | - | - |
| 1777814723 | 28.89° C | 64% | 1018.7 hPa | 0 mm | - | - | - |
| 1777809876 | 22.78° C | 88% | 1018.2 hPa | 0 mm | - | - | - |
| 1777809574 | 22.22° C | 90% | 1018.4 hPa | 0 mm | - | - | - |
| 1777805944 | 19.44° C | 98% | 1017.7 hPa | 0 mm | - | - | - |
| 1777804431 | 18.33° C | 97% | 1017.4 hPa | 0 mm | - | - | - |
* Rain latest hour (hover to see other rain measurements)
** Current wind speed in m/s (hover to see current wind gust speed)